Magnet, Nebraska
Current Conditions -  °F | °C
As of 10:15 PM on Sunday 25 Jan 2015 (Local Time) from KLCG Reporting Station
Overcast Overcast  
Wind Chill: 25°   Ceiling: 10000
Heat Index: 31°   Visibility: 10mi
Dew Point: 29°   Wind: 6mph
Humidity: 95%   Direction: 190°S
Pressure: 30.02"   Gusts: NA
Location:  42.46°N, 97.47°W
Report Text: KLCG 260415Z AUTO 19005KT 10SM OVC100 M01/M01 A3002 RMK AO2 T10081015
Loading
Personal Weather Stations






























Interactive Weather Map New forecast layout! Learn more

10-Day Weather Forecast

Advertisements
Track Severe Weather on mobile